High Bar Harbor, New Jersey
Current Conditions -  °F | °C
As of 6:35 AM on Saturday 20 Dec 2014 (Local Time) from KMJX Reporting Station
Overcast Overcast  
Wind Chill: 24°   Ceiling: 2700
Heat Index: 30°   Visibility: 10mi
Dew Point: 21°   Wind: 6mph
Humidity: 69%   Direction: 340°NNW
Pressure: 30.26"   Gusts: NA
Location:  39.623°N, 74.1974°W
Report Text: KMJX 201135Z AUTO 34005KT 10SM OVC027 M01/M06 A3026 RMK AO1
Loading
Personal Weather Stations






























Interactive Weather Map New forecast layout! Learn more

10-Day Weather Forecast

Advertisements
Track Severe Weather on mobile